createdAt,value
2023-01-15T00:02:08.050Z,84.21
2023-01-15T00:04:35.104Z,84.22
2023-01-15T00:07:01.830Z,84.56
2023-01-15T00:09:28.591Z,83.72
2023-01-15T00:11:55.380Z,83.54
2023-01-15T00:14:22.334Z,84.02
2023-01-15T00:16:52.580Z,83.88
2023-01-15T00:19:19.425Z,82.92
2023-01-15T00:21:46.228Z,84.23
2023-01-15T00:24:31.774Z,83.39
2023-01-15T00:27:17.314Z,82.70
2023-01-15T00:29:44.349Z,82.35
2023-01-15T00:32:11.175Z,83.29
2023-01-15T00:34:38.038Z,82.78
2023-01-15T00:37:05.178Z,82.78
2023-01-15T00:39:34.688Z,82.52
2023-01-15T00:42:01.923Z,81.86
2023-01-15T00:44:28.848Z,82.43
2023-01-15T00:46:55.545Z,82.24
2023-01-15T00:49:22.360Z,81.93
2023-01-15T00:51:50.170Z,81.65
2023-01-15T00:54:17.999Z,81.72
2023-01-15T00:56:45.051Z,81.18
2023-01-15T00:59:12.158Z,80.96
2023-01-15T01:01:39.486Z,80.69
2023-01-15T01:04:06.745Z,81.34
2023-01-15T01:06:33.511Z,81.11
2023-01-15T01:09:00.244Z,81.84
2023-01-15T01:11:27.114Z,81.60
2023-01-15T01:13:55.580Z,81.18
2023-01-15T01:16:37.896Z,82.00
2023-01-15T01:19:12.818Z,82.67
2023-01-15T01:21:43.749Z,82.15
2023-01-15T01:24:17.700Z,82.79
2023-01-15T01:26:47.149Z,83.78
2023-01-15T01:29:17.130Z,84.05
2023-01-15T01:31:44.248Z,86.66
2023-01-15T01:34:13.143Z,86.06
2023-01-15T01:36:42.945Z,86.68
2023-01-15T01:39:16.247Z,87.04
2023-01-15T01:41:43.845Z,88.15
2023-01-15T01:44:35.278Z,89.61
2023-01-15T01:47:06.633Z,90.58
2023-01-15T01:49:35.240Z,91.25
2023-01-15T01:52:08.347Z,92.64
2023-01-15T01:54:37.868Z,92.47
2023-01-15T01:57:07.442Z,93.45
2023-01-15T01:59:34.673Z,94.04
2023-01-15T02:02:01.688Z,94.35
2023-01-15T02:04:30.943Z,94.20
2023-01-15T02:07:00.925Z,93.94
2023-01-15T02:09:27.900Z,93.78
2023-01-15T02:12:01.876Z,93.44
2023-01-15T02:14:30.897Z,92.55
2023-01-15T02:17:21.454Z,92.21
2023-01-15T02:20:12.856Z,92.31
2023-01-15T02:23:21.800Z,91.81
2023-01-15T02:26:13.798Z,91.73
2023-01-15T02:28:45.561Z,91.71
2023-01-15T02:31:31.427Z,90.55
2023-01-15T02:34:14.638Z,90.23
2023-01-15T02:36:47.586Z,89.93
2023-01-15T02:39:17.192Z,89.59
2023-01-15T02:41:49.153Z,89.66
2023-01-15T02:44:20.221Z,89.86
2023-01-15T02:46:50.340Z,89.35
2023-01-15T02:49:20.830Z,89.22
2023-01-15T02:52:15.164Z,90.21
2023-01-15T02:54:52.732Z,89.82
2023-01-15T02:57:21.773Z,90.05
2023-01-15T02:59:50.554Z,90.63
2023-01-15T03:02:33.826Z,90.52
2023-01-15T03:05:20.745Z,90.40
2023-01-15T03:08:03.407Z,90.38
2023-01-15T03:10:57.369Z,90.14
2023-01-15T03:13:32.244Z,89.83
2023-01-15T03:16:40.620Z,89.71
2023-01-15T03:19:14.458Z,89.50
2023-01-15T03:22:05.734Z,89.48
2023-01-15T03:24:34.731Z,89.34
2023-01-15T03:27:02.476Z,88.64
2023-01-15T03:29:36.448Z,89.29
2023-01-15T03:32:04.390Z,89.46
2023-01-15T03:34:41.028Z,88.72
2023-01-15T03:37:08.089Z,88.43
2023-01-15T03:39:35.452Z,89.28
2023-01-15T03:42:19.867Z,88.52
2023-01-15T03:45:32.289Z,88.71
2023-01-15T03:48:26.787Z,89.25
2023-01-15T03:51:02.753Z,88.96
2023-01-15T03:53:32.757Z,89.10
2023-01-15T03:56:16.063Z,89.18
2023-01-15T03:59:01.210Z,89.35
2023-01-15T04:01:36.080Z,89.00
2023-01-15T04:04:03.600Z,89.89
2023-01-15T04:06:35.438Z,90.40
2023-01-15T04:09:06.901Z,91.40
2023-01-15T04:11:33.813Z,91.63
2023-01-15T04:14:00.707Z,91.50
2023-01-15T04:16:32.868Z,91.92
2023-01-15T04:19:00.462Z,92.76
2023-01-15T04:21:27.434Z,92.47
2023-01-15T04:23:54.388Z,92.98
2023-01-15T04:26:21.392Z,94.19
2023-01-15T04:28:48.421Z,93.89
2023-01-15T04:31:15.951Z,93.04
2023-01-15T04:33:42.851Z,93.36
2023-01-15T04:36:10.152Z,93.65
2023-01-15T04:38:38.663Z,93.89
2023-01-15T04:41:25.415Z,94.92
2023-01-15T04:44:07.759Z,94.34
2023-01-15T04:46:39.335Z,94.42
2023-01-15T04:49:10.048Z,94.89
2023-01-15T04:51:37.567Z,94.54
2023-01-15T04:54:05.942Z,94.87
2023-01-15T04:56:38.555Z,94.96
2023-01-15T04:59:05.428Z,94.82
2023-01-15T05:01:32.792Z,94.90
2023-01-15T05:03:59.687Z,95.00
2023-01-15T05:06:26.807Z,94.92
2023-01-15T05:08:53.864Z,94.39
2023-01-15T05:11:20.813Z,94.53
2023-01-15T05:13:47.691Z,94.92
2023-01-15T05:16:22.145Z,94.79
2023-01-15T05:18:49.098Z,94.73
2023-01-15T05:21:18.804Z,95.38
2023-01-15T05:23:45.734Z,95.35
2023-01-15T05:26:12.745Z,95.40
2023-01-15T05:28:39.991Z,95.40
2023-01-15T05:31:17.125Z,95.32
2023-01-15T05:33:47.099Z,94.69
2023-01-15T05:36:17.299Z,94.99
2023-01-15T05:38:44.260Z,94.69
2023-01-15T05:41:33.990Z,94.66
2023-01-15T05:44:06.999Z,94.71
2023-01-15T05:46:34.802Z,95.76
2023-01-15T05:49:03.435Z,95.59
2023-01-15T05:51:30.992Z,96.24
2023-01-15T05:53:58.673Z,96.04
2023-01-15T05:56:26.022Z,95.68
2023-01-15T05:58:54.033Z,95.67
2023-01-15T06:01:21.972Z,95.02
2023-01-15T06:03:49.393Z,94.75
2023-01-15T06:06:18.685Z,95.02
2023-01-15T06:08:46.594Z,94.96
2023-01-15T06:11:14.035Z,95.76
2023-01-15T06:13:41.365Z,95.66
2023-01-15T06:16:11.031Z,97.48
2023-01-15T06:18:40.864Z,98.14
2023-01-15T06:21:11.055Z,97.91
2023-01-15T06:23:38.866Z,97.80
2023-01-15T06:26:18.811Z,97.95
2023-01-15T06:28:47.103Z,98.52
2023-01-15T06:31:17.997Z,99.67
2023-01-15T06:33:45.270Z,100.00
2023-01-15T06:36:16.156Z,100.00
2023-01-15T06:38:43.934Z,100.00
2023-01-15T06:41:36.457Z,100.00
2023-01-15T06:44:22.430Z,100.00
2023-01-15T06:47:11.201Z,100.00
2023-01-15T06:49:38.387Z,100.00
2023-01-15T06:52:06.649Z,100.00
2023-01-15T06:54:35.042Z,100.00
2023-01-15T06:57:02.134Z,100.00
2023-01-15T06:59:29.411Z,100.00
2023-01-15T07:01:56.290Z,100.00
2023-01-15T07:04:23.236Z,100.00
2023-01-15T07:06:50.067Z,100.00
2023-01-15T07:09:17.117Z,100.00
2023-01-15T07:11:49.904Z,100.00
2023-01-15T07:14:25.042Z,100.00
2023-01-15T07:16:52.926Z,100.00
2023-01-15T07:19:20.500Z,100.00
2023-01-15T07:21:48.047Z,100.00
2023-01-15T07:24:17.625Z,100.00
2023-01-15T07:26:46.000Z,100.00
2023-01-15T07:29:13.876Z,100.00
2023-01-15T07:31:41.219Z,100.00
2023-01-15T07:34:08.813Z,100.00
2023-01-15T07:36:36.897Z,100.00
2023-01-15T07:39:09.772Z,100.00
2023-01-15T07:41:55.036Z,100.00
2023-01-15T07:44:43.853Z,100.00
2023-01-15T07:47:41.729Z,100.00
2023-01-15T07:50:14.979Z,100.00
2023-01-15T07:52:42.217Z,100.00
2023-01-15T07:55:12.818Z,100.00
2023-01-15T07:57:44.202Z,100.00
2023-01-15T08:00:19.249Z,100.00
2023-01-15T08:02:49.906Z,100.00
2023-01-15T08:05:20.226Z,100.00
2023-01-15T08:08:07.559Z,100.00
2023-01-15T08:10:56.186Z,100.00
2023-01-15T08:13:44.695Z,100.00
2023-01-15T08:20:23.065Z,100.00
2023-01-15T08:22:49.869Z,99.63
2023-01-15T08:25:20.509Z,100.00
2023-01-15T08:27:47.720Z,100.00
2023-01-15T08:30:21.017Z,99.86
2023-01-15T08:32:47.931Z,99.98
2023-01-15T08:35:14.973Z,98.46
2023-01-15T08:37:42.418Z,98.31
2023-01-15T08:40:12.041Z,98.24
2023-01-15T08:42:39.253Z,98.44
2023-01-15T08:45:07.047Z,99.10
2023-01-15T08:47:33.815Z,98.57
2023-01-15T08:50:00.560Z,99.00
2023-01-15T08:52:27.318Z,98.54
2023-01-15T08:54:54.081Z,96.49
2023-01-15T08:57:20.810Z,96.40
2023-01-15T08:59:48.100Z,96.21
2023-01-15T09:02:15.563Z,96.80
2023-01-15T09:04:42.504Z,96.63
2023-01-15T09:07:09.448Z,96.89
2023-01-15T09:09:36.251Z,97.30
2023-01-15T09:12:03.016Z,96.88
2023-01-15T09:14:59.547Z,96.99
2023-01-15T09:17:16.663Z,96.78
2023-01-15T09:19:43.425Z,96.57
2023-01-15T09:22:10.148Z,97.02
2023-01-15T09:24:37.209Z,96.67
2023-01-15T09:27:03.944Z,96.71
2023-01-15T09:29:30.812Z,96.61
2023-01-15T09:31:57.559Z,96.19
2023-01-15T09:34:24.339Z,96.28
2023-01-15T09:36:51.392Z,96.00
2023-01-15T09:39:18.143Z,96.72
2023-01-15T09:42:09.372Z,98.89
2023-01-15T09:44:51.829Z,98.58
2023-01-15T09:47:31.344Z,97.08
2023-01-15T09:50:22.913Z,96.23
2023-01-15T09:52:49.546Z,97.26
2023-01-15T09:55:22.706Z,96.48
2023-01-15T09:57:56.886Z,95.67
2023-01-15T10:00:26.822Z,95.91
2023-01-15T10:03:00.285Z,95.69
2023-01-15T10:06:12.342Z,96.04
2023-01-15T10:08:46.324Z,95.53
2023-01-15T10:11:15.558Z,95.05
2023-01-15T10:13:47.542Z,95.29
2023-01-15T10:16:23.584Z,95.17
2023-01-15T10:18:50.700Z,94.58
2023-01-15T10:21:35.960Z,94.63
2023-01-15T10:24:40.321Z,93.19
2023-01-15T10:27:36.698Z,92.79
2023-01-15T10:30:21.139Z,92.37
2023-01-15T10:33:02.360Z,92.10
2023-01-15T10:35:37.057Z,92.57
2023-01-15T10:38:25.123Z,93.71
2023-01-15T10:41:18.999Z,92.91
2023-01-15T10:44:19.630Z,93.02
2023-01-15T10:46:57.032Z,93.29
2023-01-15T10:49:29.573Z,94.01
2023-01-15T10:52:04.334Z,94.56
2023-01-15T10:54:54.608Z,91.83
2023-01-15T10:57:42.307Z,92.82
2023-01-15T11:00:11.592Z,92.56
2023-01-15T11:02:45.911Z,92.51
2023-01-15T11:05:17.465Z,92.30
2023-01-15T11:08:10.352Z,91.75
2023-01-15T11:10:35.668Z,90.64
2023-01-15T11:13:39.461Z,90.75
2023-01-15T11:16:35.378Z,90.81
2023-01-15T11:19:23.863Z,89.53
2023-01-15T11:21:52.789Z,90.17
2023-01-15T11:24:20.927Z,89.87
2023-01-15T11:26:52.536Z,91.35
2023-01-15T11:29:34.202Z,91.63
2023-01-15T11:32:01.033Z,90.98
2023-01-15T11:34:27.834Z,89.65
2023-01-15T11:37:07.253Z,89.48
2023-01-15T11:39:34.045Z,89.71
2023-01-15T11:42:25.615Z,89.23
2023-01-15T11:45:16.499Z,90.31
2023-01-15T11:48:13.424Z,89.29
2023-01-15T11:50:55.823Z,91.34
2023-01-15T11:53:27.628Z,90.37
2023-01-15T11:56:06.423Z,91.05
2023-01-15T11:58:50.628Z,91.04
2023-01-15T12:01:34.997Z,92.52
2023-01-15T12:04:08.413Z,93.92
2023-01-15T12:06:39.900Z,93.43
2023-01-15T12:09:34.318Z,92.77
2023-01-15T12:12:44.720Z,93.93
2023-01-15T12:16:06.004Z,93.96
2023-01-15T12:18:50.415Z,93.99
2023-01-15T12:21:29.412Z,94.47
2023-01-15T12:24:30.657Z,94.78
2023-01-15T12:27:35.430Z,95.48
2023-01-15T12:30:40.324Z,95.25
2023-01-15T12:33:28.183Z,96.17
2023-01-15T12:36:04.145Z,93.77
2023-01-15T12:38:51.223Z,94.46
2023-01-15T12:41:53.959Z,94.36
2023-01-15T12:44:57.165Z,91.74
2023-01-15T12:47:49.424Z,92.18
2023-01-15T12:50:37.972Z,93.80
2023-01-15T12:53:41.675Z,94.89
2023-01-15T12:56:27.301Z,93.88
2023-01-15T12:59:10.695Z,94.50
2023-01-15T13:02:09.800Z,95.86
2023-01-15T13:04:52.402Z,95.01
2023-01-15T13:07:28.605Z,95.58
2023-01-15T13:10:26.170Z,95.56
2023-01-15T13:12:56.201Z,95.02
2023-01-15T13:15:31.303Z,94.63
2023-01-15T13:18:23.447Z,94.65
2023-01-15T13:20:52.597Z,95.30
2023-01-15T13:23:56.240Z,96.25
2023-01-15T13:26:34.851Z,96.38
2023-01-15T13:29:36.764Z,96.72
2023-01-15T13:32:22.925Z,96.61
2023-01-15T13:34:58.883Z,96.81
2023-01-15T13:37:31.698Z,96.39
2023-01-15T13:40:24.117Z,95.38
2023-01-15T13:42:52.456Z,95.06
2023-01-15T13:45:19.255Z,94.57
2023-01-15T13:47:52.934Z,95.00
2023-01-15T13:50:32.004Z,96.01
2023-01-15T13:53:21.003Z,96.37
2023-01-15T13:56:06.139Z,95.79
2023-01-15T13:58:39.815Z,96.56
2023-01-15T14:01:20.736Z,97.66
2023-01-15T14:04:15.673Z,97.05
2023-01-15T14:06:52.913Z,96.88
2023-01-15T14:09:25.416Z,96.17
2023-01-15T14:11:55.557Z,96.67
2023-01-15T14:14:57.124Z,97.15
2023-01-15T14:18:12.475Z,97.16
2023-01-15T14:21:11.809Z,97.96
2023-01-15T14:24:02.818Z,98.25
2023-01-15T14:26:53.325Z,98.31
2023-01-15T14:29:45.519Z,98.86
2023-01-15T14:32:38.083Z,99.02
2023-01-15T14:35:20.335Z,98.70
2023-01-15T14:37:59.490Z,98.45
2023-01-15T14:40:32.792Z,98.81
2023-01-15T14:43:09.577Z,98.14
2023-01-15T14:45:42.217Z,98.64
2023-01-15T14:48:38.592Z,98.78
2023-01-15T14:51:28.743Z,98.67
2023-01-15T14:54:04.309Z,98.24
2023-01-15T14:56:36.473Z,97.19
2023-01-15T14:59:36.573Z,96.59
2023-01-15T15:02:21.080Z,96.94
2023-01-15T15:04:54.164Z,96.90
2023-01-15T15:07:23.246Z,95.09
2023-01-15T15:10:06.087Z,94.82
2023-01-15T15:13:15.272Z,93.40
2023-01-15T15:16:23.285Z,92.82
2023-01-15T15:19:35.072Z,93.61
2023-01-15T15:22:07.001Z,92.51
2023-01-15T15:24:37.079Z,92.80
2023-01-15T15:27:17.406Z,93.17
2023-01-15T15:29:44.416Z,93.16
2023-01-15T15:32:23.734Z,93.39
2023-01-15T15:34:53.312Z,92.28
2023-01-15T15:37:26.041Z,92.25
2023-01-15T15:40:17.088Z,91.68
2023-01-15T15:43:24.374Z,91.37
2023-01-15T15:46:15.177Z,91.80
2023-01-15T15:48:51.226Z,91.29
2023-01-15T15:51:48.626Z,92.55
2023-01-15T15:54:29.835Z,92.77
2023-01-15T15:57:15.957Z,93.02
2023-01-15T15:59:51.951Z,93.03
2023-01-15T16:02:28.691Z,94.29
2023-01-15T16:04:59.172Z,94.77
2023-01-15T16:07:34.347Z,94.78
2023-01-15T16:10:13.171Z,95.09
2023-01-15T16:12:47.181Z,95.02
2023-01-15T16:15:19.705Z,95.38
2023-01-15T16:17:47.179Z,95.07
2023-01-15T16:20:17.750Z,95.88
2023-01-15T16:23:05.679Z,94.94
2023-01-15T16:25:37.139Z,96.07
2023-01-15T16:28:04.998Z,96.50
2023-01-15T16:30:33.096Z,97.32
2023-01-15T16:33:08.110Z,97.54
2023-01-15T16:35:37.390Z,97.22
2023-01-15T16:38:07.111Z,96.90
2023-01-15T16:40:40.115Z,97.13
2023-01-15T16:43:18.424Z,97.24
2023-01-15T16:46:07.783Z,96.97
2023-01-15T16:48:46.315Z,97.32
2023-01-15T16:51:31.648Z,97.51
2023-01-15T16:54:02.218Z,97.11
2023-01-15T16:56:35.208Z,97.61
2023-01-15T16:59:02.285Z,97.32
2023-01-15T17:01:38.402Z,96.23
2023-01-15T17:04:20.785Z,97.26
2023-01-15T17:07:06.661Z,98.29
2023-01-15T17:09:36.874Z,98.28
2023-01-15T17:12:22.923Z,98.13
2023-01-15T17:14:49.821Z,98.68
2023-01-15T17:17:27.822Z,98.91
2023-01-15T17:19:57.173Z,98.50
2023-01-15T17:22:30.860Z,98.46
2023-01-15T17:25:00.444Z,98.54
2023-01-15T17:27:29.847Z,98.80
2023-01-15T17:29:56.804Z,98.69
2023-01-15T17:32:36.344Z,98.61
2023-01-15T17:35:03.337Z,98.59
2023-01-15T17:37:30.177Z,98.46
2023-01-15T17:39:56.956Z,98.47
2023-01-15T17:42:23.745Z,98.41
2023-01-15T17:44:50.622Z,98.72
2023-01-15T17:47:17.392Z,98.57
2023-01-15T17:49:44.175Z,98.56
2023-01-15T17:52:19.084Z,98.27
2023-01-15T17:55:07.526Z,97.83
2023-01-15T17:57:52.616Z,97.95
2023-01-15T18:00:38.245Z,97.74
2023-01-15T18:03:24.003Z,97.77
2023-01-15T18:05:51.846Z,97.74
2023-01-15T18:08:19.030Z,98.43
2023-01-15T18:10:45.907Z,98.14
2023-01-15T18:13:12.932Z,98.39
2023-01-15T18:15:39.707Z,97.84
2023-01-15T18:18:06.564Z,97.50
2023-01-15T18:20:33.991Z,97.19
2023-01-15T18:23:00.891Z,96.67
2023-01-15T18:25:27.879Z,96.15
2023-01-15T18:27:54.741Z,96.09
2023-01-15T18:30:21.675Z,95.72
2023-01-15T18:32:48.621Z,96.26
2023-01-15T18:35:16.072Z,95.79
2023-01-15T18:37:43.076Z,95.79
2023-01-15T18:40:11.683Z,95.91
2023-01-15T18:42:58.435Z,95.38
2023-01-15T18:45:44.406Z,95.59
2023-01-15T18:48:11.196Z,95.31
2023-01-15T18:50:38.132Z,95.05
2023-01-15T18:53:04.958Z,95.27
2023-01-15T18:55:31.786Z,95.53
2023-01-15T18:57:58.671Z,95.04
2023-01-15T19:00:25.767Z,95.24
2023-01-15T19:02:52.670Z,96.07
2023-01-15T19:05:20.133Z,95.80
2023-01-15T19:07:47.402Z,95.94
2023-01-15T19:10:16.642Z,95.12
2023-01-15T19:12:44.849Z,95.17
2023-01-15T19:15:36.124Z,94.76
2023-01-15T19:18:22.758Z,94.86
2023-01-15T19:20:49.849Z,94.49
2023-01-15T19:23:16.736Z,94.43
2023-01-15T19:25:45.716Z,94.52
2023-01-15T19:28:17.694Z,94.44
2023-01-15T19:31:10.422Z,94.74
2023-01-15T19:33:37.377Z,94.82
2023-01-15T19:36:04.759Z,94.63
2023-01-15T19:38:33.627Z,94.00
2023-01-15T19:41:20.397Z,94.15
2023-01-15T19:44:05.510Z,93.41
2023-01-15T19:46:58.056Z,93.50
2023-01-15T19:49:43.680Z,93.58
2023-01-15T19:52:29.364Z,93.59
2023-01-15T19:55:00.012Z,93.98
2023-01-15T19:57:29.713Z,94.88
2023-01-15T19:59:56.608Z,94.16
2023-01-15T20:02:23.414Z,94.85
2023-01-15T20:04:50.690Z,95.13
2023-01-15T20:07:17.653Z,95.26
2023-01-15T20:09:45.000Z,95.53
2023-01-15T20:12:31.394Z,95.03
2023-01-15T20:14:59.108Z,94.59
2023-01-15T20:17:29.407Z,94.88
2023-01-15T20:19:56.701Z,94.64
2023-01-15T20:22:27.577Z,94.95
2023-01-15T20:24:54.505Z,95.64
2023-01-15T20:27:21.645Z,96.37
2023-01-15T20:30:17.914Z,96.88
2023-01-15T20:32:47.630Z,97.40
2023-01-15T20:35:19.726Z,97.53
2023-01-15T20:37:48.129Z,97.82
2023-01-15T20:40:18.518Z,98.61
2023-01-15T20:43:04.163Z,98.70
2023-01-15T20:45:31.237Z,98.58
2023-01-15T20:48:13.386Z,99.02
2023-01-15T20:50:43.900Z,98.27
2023-01-15T20:53:11.234Z,98.59
2023-01-15T20:55:53.858Z,98.34
2023-01-15T20:58:23.062Z,98.24
2023-01-15T21:00:50.885Z,98.02
2023-01-15T21:03:18.174Z,98.16
2023-01-15T21:05:45.476Z,97.99
2023-01-15T21:08:12.558Z,98.07
2023-01-15T21:10:40.801Z,97.55
2023-01-15T21:13:07.860Z,97.56
2023-01-15T21:15:34.709Z,97.35
2023-01-15T21:18:01.506Z,97.41
2023-01-15T21:20:28.439Z,97.51
2023-01-15T21:22:57.325Z,97.60
2023-01-15T21:25:24.326Z,98.08
2023-01-15T21:27:52.011Z,98.52
2023-01-15T21:30:18.993Z,98.70
2023-01-15T21:32:46.535Z,99.34
2023-01-15T21:35:13.339Z,99.46
2023-01-15T21:37:40.117Z,99.47
2023-01-15T21:40:08.058Z,100.00
2023-01-15T21:42:53.258Z,100.00
2023-01-15T21:45:20.209Z,100.00
2023-01-15T21:47:47.068Z,100.00
2023-01-15T21:50:13.944Z,100.00
2023-01-15T21:52:40.696Z,100.00
2023-01-15T21:55:07.972Z,100.00
2023-01-15T21:57:34.836Z,100.00
2023-01-15T22:00:01.656Z,100.00
2023-01-15T22:02:29.988Z,100.00
2023-01-15T22:04:56.863Z,100.00
2023-01-15T22:07:23.759Z,100.00
2023-01-15T22:09:51.103Z,100.00
2023-01-15T22:12:18.197Z,100.00
2023-01-15T22:14:45.110Z,100.00
2023-01-15T22:17:11.876Z,100.00
2023-01-15T22:19:38.823Z,100.00
2023-01-15T22:22:10.971Z,100.00
2023-01-15T22:24:40.507Z,100.00
2023-01-15T22:27:09.288Z,100.00
2023-01-15T22:29:40.924Z,100.00
2023-01-15T22:32:10.718Z,100.00
2023-01-15T22:34:37.619Z,99.46
2023-01-15T22:37:04.800Z,99.55
2023-01-15T22:39:31.863Z,99.18
2023-01-15T22:42:17.121Z,99.09
2023-01-15T22:44:45.231Z,99.28
2023-01-15T22:47:12.371Z,99.31
2023-01-15T22:49:39.214Z,98.92
2023-01-15T22:52:06.399Z,99.56
2023-01-15T22:54:33.341Z,99.75
2023-01-15T22:57:00.186Z,99.96
2023-01-15T22:59:27.152Z,100.00
2023-01-15T23:01:54.230Z,99.72
2023-01-15T23:04:24.340Z,99.50
2023-01-15T23:06:52.854Z,99.71
2023-01-15T23:09:23.033Z,99.56
2023-01-15T23:11:51.652Z,99.51
2023-01-15T23:14:21.488Z,99.58
2023-01-15T23:16:49.237Z,99.00
2023-01-15T23:19:17.644Z,99.02
2023-01-15T23:21:44.520Z,99.74
2023-01-15T23:24:11.966Z,98.85
2023-01-15T23:26:39.219Z,99.15
2023-01-15T23:29:06.460Z,98.82
2023-01-15T23:31:33.651Z,99.44
2023-01-15T23:34:00.671Z,99.71
2023-01-15T23:36:27.640Z,99.69
2023-01-15T23:38:54.792Z,99.12
2023-01-15T23:41:43.749Z,98.86
2023-01-15T23:44:38.235Z,98.15
2023-01-15T23:47:07.588Z,97.74
2023-01-15T23:49:35.012Z,97.55
2023-01-15T23:52:02.345Z,97.67
2023-01-15T23:54:30.943Z,97.51
2023-01-15T23:56:59.732Z,97.30
2023-01-15T23:59:26.711Z,97.20
